createdAt,value
2022-07-25T00:01:46.887Z,18.49
2022-07-25T00:04:18.231Z,18.57
2022-07-25T00:06:48.396Z,18.54
2022-07-25T00:09:17.808Z,18.36
2022-07-25T00:11:46.973Z,18.46
2022-07-25T00:14:16.366Z,18.34
2022-07-25T00:16:45.573Z,18.31
2022-07-25T00:19:14.798Z,18.35
2022-07-25T00:21:45.378Z,18.23
2022-07-25T00:24:14.574Z,18.43
2022-07-25T00:26:43.946Z,18.41
2022-07-25T00:29:13.575Z,18.36
2022-07-25T00:31:42.786Z,18.31
2022-07-25T00:34:12.087Z,18.39
2022-07-25T00:36:41.397Z,18.38
2022-07-25T00:39:12.197Z,18.37
2022-07-25T00:41:41.851Z,18.40
2022-07-25T00:44:11.058Z,18.55
2022-07-25T00:46:40.630Z,18.55
2022-07-25T00:49:10.932Z,18.60
2022-07-25T00:51:40.195Z,18.54
2022-07-25T00:54:09.523Z,18.67
2022-07-25T00:56:40.258Z,18.52
2022-07-25T00:59:10.029Z,18.60
2022-07-25T01:01:40.385Z,18.54
2022-07-25T01:04:09.983Z,18.56
2022-07-25T01:06:39.272Z,18.59
2022-07-25T01:09:09.330Z,18.58
2022-07-25T01:11:40.705Z,18.52
2022-07-25T01:14:10.094Z,18.61
2022-07-25T01:16:41.118Z,18.54
2022-07-25T01:19:10.390Z,18.58
2022-07-25T01:21:43.381Z,18.50
2022-07-25T01:24:14.606Z,18.46
2022-07-25T01:26:44.452Z,18.34
2022-07-25T01:29:13.688Z,18.32
2022-07-25T01:31:42.820Z,18.34
2022-07-25T01:34:12.288Z,18.20
2022-07-25T01:36:42.929Z,18.15
2022-07-25T01:39:12.125Z,18.20
2022-07-25T01:41:41.273Z,18.15
2022-07-25T01:44:10.562Z,18.10
2022-07-25T01:46:39.786Z,18.09
2022-07-25T01:49:09.153Z,18.11
2022-07-25T01:51:38.438Z,18.08
2022-07-25T01:54:10.243Z,18.24
2022-07-25T01:56:45.930Z,18.08
2022-07-25T01:59:18.185Z,18.23
2022-07-25T02:01:47.611Z,18.31
2022-07-25T02:04:16.932Z,18.30
2022-07-25T02:06:46.196Z,18.34
2022-07-25T02:09:17.119Z,18.30
2022-07-25T02:11:46.441Z,18.28
2022-07-25T02:14:15.915Z,18.37
2022-07-25T02:16:45.423Z,18.28
2022-07-25T02:19:14.708Z,18.36
2022-07-25T02:21:44.300Z,18.35
2022-07-25T02:24:13.495Z,18.28
2022-07-25T02:26:44.087Z,18.19
2022-07-25T02:29:13.824Z,18.24
2022-07-25T02:31:43.122Z,18.21
2022-07-25T02:34:12.293Z,18.27
2022-07-25T02:36:41.498Z,18.16
2022-07-25T02:39:10.926Z,18.13
2022-07-25T02:41:40.478Z,18.14
2022-07-25T02:44:11.330Z,18.04
2022-07-25T02:46:40.634Z,17.99
2022-07-25T02:49:09.884Z,18.00
2022-07-25T02:51:39.095Z,17.95
2022-07-25T02:54:08.298Z,18.04
2022-07-25T02:56:37.603Z,18.09
2022-07-25T02:59:07.056Z,18.03
2022-07-25T03:01:37.717Z,17.96
2022-07-25T03:04:07.798Z,18.00
2022-07-25T03:06:37.244Z,17.97
2022-07-25T03:09:06.361Z,17.93
2022-07-25T03:11:35.927Z,17.94
2022-07-25T03:14:05.401Z,17.97
2022-07-25T03:16:36.256Z,18.02
2022-07-25T03:19:10.342Z,18.00
2022-07-25T03:21:39.684Z,18.04
2022-07-25T03:24:09.540Z,18.03
2022-07-25T03:26:39.027Z,18.05
2022-07-25T03:29:08.340Z,18.04
2022-07-25T03:31:39.207Z,17.95
2022-07-25T03:34:08.667Z,17.97
2022-07-25T03:36:38.026Z,17.99
2022-07-25T03:39:07.253Z,17.98
2022-07-25T03:41:36.392Z,18.05
2022-07-25T03:44:06.511Z,18.08
2022-07-25T03:46:35.964Z,18.10
2022-07-25T03:49:06.856Z,18.11
2022-07-25T03:51:36.167Z,18.08
2022-07-25T03:54:06.847Z,18.11
2022-07-25T03:56:43.618Z,18.10
2022-07-25T03:59:15.246Z,18.09
2022-07-25T04:01:46.154Z,18.16
2022-07-25T04:04:17.166Z,18.16
2022-07-25T04:06:47.124Z,18.14
2022-07-25T04:09:17.219Z,18.06
2022-07-25T04:11:46.437Z,18.08
2022-07-25T04:14:15.630Z,18.14
2022-07-25T04:16:44.849Z,18.11
2022-07-25T04:19:15.606Z,18.14
2022-07-25T04:21:46.528Z,18.13
2022-07-25T04:24:15.715Z,18.03
2022-07-25T04:26:44.877Z,18.15
2022-07-25T04:29:14.019Z,18.10
2022-07-25T04:31:43.753Z,18.12
2022-07-25T04:34:12.915Z,18.18
2022-07-25T04:36:43.491Z,18.09
2022-07-25T04:39:12.968Z,18.16
2022-07-25T04:41:42.200Z,18.19
2022-07-25T04:44:11.362Z,18.23
2022-07-25T04:46:41.795Z,18.24
2022-07-25T04:49:11.500Z,18.20
2022-07-25T04:51:42.311Z,18.23
2022-07-25T04:54:11.474Z,18.27
2022-07-25T04:56:40.637Z,18.21
2022-07-25T04:59:09.909Z,18.07
2022-07-25T05:01:39.078Z,18.11
2022-07-25T05:04:08.489Z,18.03
2022-07-25T05:06:38.086Z,18.10
2022-07-25T05:09:08.939Z,18.16
2022-07-25T05:11:38.081Z,18.19
2022-07-25T05:14:08.190Z,18.31
2022-07-25T05:16:37.779Z,18.32
2022-07-25T05:19:08.681Z,18.37
2022-07-25T05:21:38.343Z,18.35
2022-07-25T05:24:09.924Z,18.38
2022-07-25T05:26:39.221Z,18.45
2022-07-25T05:29:08.321Z,18.50
2022-07-25T05:31:37.786Z,18.46
2022-07-25T05:34:09.193Z,18.51
2022-07-25T05:36:38.778Z,18.61
2022-07-25T05:39:09.311Z,18.66
2022-07-25T05:41:38.931Z,18.73
2022-07-25T05:44:08.283Z,18.71
2022-07-25T05:46:38.017Z,18.62
2022-07-25T05:49:07.374Z,18.57
2022-07-25T05:51:39.775Z,18.51
2022-07-25T05:54:10.666Z,18.52
2022-07-25T05:56:39.843Z,18.51
2022-07-25T05:59:09.331Z,18.53
2022-07-25T06:01:38.594Z,18.44
2022-07-25T06:04:08.212Z,18.49
2022-07-25T06:06:38.090Z,18.30
2022-07-25T06:09:11.763Z,18.36
2022-07-25T06:11:54.507Z,18.33
2022-07-25T06:14:29.729Z,18.25
2022-07-25T06:17:00.133Z,18.10
2022-07-25T06:19:32.551Z,17.99
2022-07-25T06:22:01.805Z,18.03
2022-07-25T06:24:32.367Z,18.05
2022-07-25T06:27:01.975Z,18.01
2022-07-25T06:29:31.309Z,18.04
2022-07-25T06:32:00.618Z,18.02
2022-07-25T06:34:32.805Z,17.98
2022-07-25T06:37:02.246Z,18.02
2022-07-25T06:39:33.046Z,18.16
2022-07-25T06:42:04.181Z,18.18
2022-07-25T06:44:38.767Z,18.10
2022-07-25T06:47:12.743Z,18.07
2022-07-25T06:49:43.061Z,17.95
2022-07-25T06:52:12.662Z,18.07
2022-07-25T06:54:43.261Z,18.15
2022-07-25T06:57:12.521Z,18.24
2022-07-25T06:59:41.695Z,18.23
2022-07-25T07:02:10.830Z,18.32
2022-07-25T07:04:40.120Z,18.32
2022-07-25T07:07:09.372Z,18.22
2022-07-25T07:09:38.606Z,18.37
2022-07-25T07:12:10.943Z,18.51
2022-07-25T07:14:40.275Z,18.56
2022-07-25T07:17:09.538Z,18.59
2022-07-25T07:19:43.964Z,18.55
2022-07-25T07:22:13.540Z,18.48
2022-07-25T07:24:45.112Z,18.59
2022-07-25T07:27:19.213Z,18.67
2022-07-25T07:29:48.523Z,18.75
2022-07-25T07:32:18.045Z,18.75
2022-07-25T07:34:47.718Z,18.87
2022-07-25T07:37:16.813Z,18.83
2022-07-25T07:39:46.052Z,18.83
2022-07-25T07:42:15.497Z,18.89
2022-07-25T07:44:46.109Z,18.96
2022-07-25T07:47:15.577Z,18.84
2022-07-25T07:49:49.813Z,19.15
2022-07-25T07:52:19.571Z,19.21
2022-07-25T07:55:06.324Z,19.40
2022-07-25T07:57:35.574Z,19.53
2022-07-25T08:00:08.300Z,19.32
2022-07-25T08:02:46.331Z,19.31
2022-07-25T08:05:21.168Z,19.28
2022-07-25T08:07:51.930Z,19.25
2022-07-25T08:10:24.026Z,19.08
2022-07-25T08:12:53.408Z,19.19
2022-07-25T08:15:24.401Z,19.00
2022-07-25T08:17:55.873Z,18.92
2022-07-25T08:20:37.892Z,18.99
2022-07-25T08:23:08.037Z,18.88
2022-07-25T08:25:37.339Z,18.98
2022-07-25T08:28:07.553Z,19.00
2022-07-25T08:30:40.402Z,19.00
2022-07-25T08:33:13.541Z,18.95
2022-07-25T08:35:48.949Z,19.04
2022-07-25T08:38:18.466Z,19.17
2022-07-25T08:40:48.026Z,19.10
2022-07-25T08:43:19.226Z,19.15
2022-07-25T08:45:53.330Z,19.28
2022-07-25T08:48:25.175Z,19.37
2022-07-25T08:50:57.518Z,19.20
2022-07-25T08:53:33.009Z,19.23
2022-07-25T08:56:10.678Z,19.05
2022-07-25T08:58:44.159Z,18.98
2022-07-25T09:01:15.250Z,19.02
2022-07-25T09:03:45.238Z,19.08
2022-07-25T09:06:23.382Z,19.11
2022-07-25T09:08:58.862Z,18.99
2022-07-25T09:11:33.010Z,18.91
2022-07-25T09:14:06.030Z,18.70
2022-07-25T09:16:41.039Z,18.88
2022-07-25T09:19:16.298Z,18.68
2022-07-25T09:22:02.516Z,18.88
2022-07-25T09:24:32.567Z,18.68
2022-07-25T09:27:09.487Z,18.75
2022-07-25T09:29:42.697Z,18.90
2022-07-25T09:32:23.074Z,18.87
2022-07-25T09:34:52.849Z,18.94
2022-07-25T09:37:28.703Z,18.98
2022-07-25T09:39:58.017Z,19.09
2022-07-25T09:42:32.641Z,18.91
2022-07-25T09:45:06.643Z,19.03
2022-07-25T09:47:40.224Z,18.95
2022-07-25T09:50:10.688Z,18.99
2022-07-25T09:52:40.574Z,19.02
2022-07-25T09:55:11.198Z,18.98
2022-07-25T09:57:40.916Z,19.02
2022-07-25T10:00:17.536Z,19.70
2022-07-25T10:03:17.514Z,20.56
2022-07-25T10:06:06.779Z,21.12
2022-07-25T10:08:38.853Z,21.12
2022-07-25T10:11:19.866Z,20.99
2022-07-25T10:13:49.421Z,21.05
2022-07-25T10:16:21.867Z,20.89
2022-07-25T10:18:54.053Z,20.94
2022-07-25T10:21:27.238Z,21.00
2022-07-25T10:24:02.688Z,20.71
2022-07-25T10:26:33.673Z,20.30
2022-07-25T10:29:08.717Z,20.50
2022-07-25T10:31:49.881Z,20.38
2022-07-25T10:34:32.002Z,20.36
2022-07-25T10:37:12.468Z,20.53
2022-07-25T10:39:45.249Z,20.57
2022-07-25T10:42:16.910Z,20.54
2022-07-25T10:44:49.595Z,21.02
2022-07-25T10:47:19.758Z,21.34
2022-07-25T10:50:16.942Z,21.14
2022-07-25T10:53:00.260Z,20.90
2022-07-25T10:55:30.573Z,20.72
2022-07-25T10:58:21.611Z,20.49
2022-07-25T11:00:51.580Z,20.89
2022-07-25T11:03:22.504Z,21.17
2022-07-25T11:05:54.795Z,21.42
2022-07-25T11:08:33.495Z,21.75
2022-07-25T11:11:03.454Z,21.91
2022-07-25T11:13:37.572Z,22.22
2022-07-25T11:16:08.393Z,21.88
2022-07-25T11:18:40.646Z,21.95
2022-07-25T11:21:11.577Z,21.67
2022-07-25T11:23:42.418Z,21.05
2022-07-25T11:26:14.207Z,20.80
2022-07-25T11:28:46.549Z,20.54
2022-07-25T11:31:17.211Z,20.26
2022-07-25T11:33:49.587Z,20.32
2022-07-25T11:36:20.636Z,20.66
2022-07-25T11:38:50.971Z,20.97
2022-07-25T11:41:31.223Z,21.33
2022-07-25T11:44:00.414Z,21.40
2022-07-25T11:46:29.746Z,21.57
2022-07-25T11:49:08.912Z,21.78
2022-07-25T11:51:42.056Z,21.98
2022-07-25T11:54:13.514Z,21.74
2022-07-25T11:56:44.386Z,21.60
2022-07-25T11:59:13.696Z,21.34
2022-07-25T12:01:45.159Z,21.12
2022-07-25T12:04:17.070Z,21.12
2022-07-25T12:06:49.732Z,21.02
2022-07-25T12:09:20.897Z,21.17
2022-07-25T12:11:51.422Z,21.37
2022-07-25T12:14:20.699Z,21.94
2022-07-25T12:16:49.855Z,22.67
2022-07-25T12:19:23.785Z,23.05
2022-07-25T12:21:54.612Z,23.29
2022-07-25T12:24:23.834Z,23.39
2022-07-25T12:26:52.997Z,22.98
2022-07-25T12:29:22.173Z,22.61
2022-07-25T12:31:51.412Z,22.21
2022-07-25T12:34:20.643Z,21.89
2022-07-25T12:36:50.025Z,21.71
2022-07-25T12:39:20.679Z,21.62
2022-07-25T12:41:50.445Z,21.42
2022-07-25T12:44:19.724Z,21.66
2022-07-25T12:46:49.614Z,21.91
2022-07-25T12:49:19.149Z,22.42
2022-07-25T12:51:48.355Z,22.80
2022-07-25T12:54:22.274Z,22.87
2022-07-25T12:56:53.424Z,22.73
2022-07-25T12:59:22.869Z,22.45
2022-07-25T13:01:52.269Z,22.66
2022-07-25T13:04:21.696Z,22.79
2022-07-25T13:06:51.001Z,22.71
2022-07-25T13:09:20.206Z,22.95
2022-07-25T13:11:49.409Z,22.97
2022-07-25T13:14:20.419Z,23.32
2022-07-25T13:16:50.121Z,23.37
2022-07-25T13:19:20.044Z,23.98
2022-07-25T13:21:49.350Z,23.73
2022-07-25T13:24:18.849Z,23.80
2022-07-25T13:26:48.121Z,23.81
2022-07-25T13:29:17.500Z,23.51
2022-07-25T13:31:51.030Z,23.54
2022-07-25T13:34:20.223Z,23.52
2022-07-25T13:36:49.391Z,23.57
2022-07-25T13:39:19.346Z,23.40
2022-07-25T13:41:48.841Z,23.48
2022-07-25T13:44:18.371Z,23.47
2022-07-25T13:46:50.038Z,23.32
2022-07-25T13:49:20.777Z,22.95
2022-07-25T13:51:50.049Z,22.67
2022-07-25T13:54:19.517Z,22.97
2022-07-25T13:56:48.722Z,23.24
2022-07-25T13:59:21.515Z,23.74
2022-07-25T14:01:51.426Z,24.39
2022-07-25T14:04:22.088Z,24.92
2022-07-25T14:06:52.969Z,25.19
2022-07-25T14:09:22.819Z,25.72
2022-07-25T14:11:52.018Z,25.41
2022-07-25T14:14:21.331Z,25.65
2022-07-25T14:16:50.615Z,24.92
2022-07-25T14:19:21.505Z,24.91
2022-07-25T14:21:50.890Z,24.68
2022-07-25T14:24:20.333Z,24.52
2022-07-25T14:26:50.567Z,24.71
2022-07-25T14:29:19.860Z,24.70
2022-07-25T14:31:49.881Z,24.96
2022-07-25T14:34:19.214Z,25.02
2022-07-25T14:36:49.758Z,24.71
2022-07-25T14:39:19.232Z,24.38
2022-07-25T14:41:48.476Z,24.44
2022-07-25T14:44:17.719Z,24.03
2022-07-25T14:46:49.192Z,23.98
2022-07-25T14:49:18.855Z,23.75
2022-07-25T14:51:49.881Z,23.09
2022-07-25T14:54:19.640Z,23.26
2022-07-25T14:56:48.985Z,23.24
2022-07-25T14:59:18.185Z,23.17
2022-07-25T15:01:47.428Z,23.19
2022-07-25T15:04:19.899Z,23.04
2022-07-25T15:06:50.369Z,23.22
2022-07-25T15:09:19.877Z,23.24
2022-07-25T15:11:49.321Z,23.17
2022-07-25T15:14:19.410Z,23.12
2022-07-25T15:16:49.501Z,23.24
2022-07-25T15:19:19.437Z,23.23
2022-07-25T15:21:50.455Z,23.20
2022-07-25T15:24:19.686Z,23.21
2022-07-25T15:26:48.851Z,23.48
2022-07-25T15:29:20.764Z,23.62
2022-07-25T15:31:50.562Z,23.66
2022-07-25T15:34:19.951Z,23.51
2022-07-25T15:36:50.637Z,23.19
2022-07-25T15:39:20.711Z,23.13
2022-07-25T15:41:49.963Z,23.02
2022-07-25T15:44:19.149Z,22.86
2022-07-25T15:46:48.734Z,22.72
2022-07-25T15:49:18.073Z,23.16
2022-07-25T15:51:47.372Z,22.97
2022-07-25T15:54:18.054Z,22.94
2022-07-25T15:56:47.476Z,22.99
2022-07-25T15:59:16.713Z,22.89
2022-07-25T16:01:45.941Z,22.99
2022-07-25T16:04:15.339Z,23.22
2022-07-25T16:06:44.907Z,23.51
2022-07-25T16:09:16.239Z,23.47
2022-07-25T16:11:47.342Z,23.64
2022-07-25T16:14:17.066Z,23.53
2022-07-25T16:16:46.624Z,23.45
2022-07-25T16:19:15.851Z,23.26
2022-07-25T16:21:45.154Z,23.14
2022-07-25T16:24:14.534Z,22.71
2022-07-25T16:26:43.797Z,22.72
2022-07-25T16:29:14.450Z,22.72
2022-07-25T16:31:43.832Z,22.56
2022-07-25T16:34:13.162Z,22.67
2022-07-25T16:36:42.423Z,22.62
2022-07-25T16:39:11.577Z,22.65
2022-07-25T16:41:40.927Z,22.72
2022-07-25T16:44:10.257Z,22.58
2022-07-25T16:46:40.898Z,22.39
2022-07-25T16:49:11.547Z,22.29
2022-07-25T16:51:41.103Z,21.90
2022-07-25T16:54:10.393Z,21.93
2022-07-25T16:56:40.160Z,21.90
2022-07-25T16:59:11.362Z,21.88
2022-07-25T17:01:42.044Z,21.90
2022-07-25T17:04:11.368Z,21.92
2022-07-25T17:06:41.696Z,21.97
2022-07-25T17:09:11.862Z,22.02
2022-07-25T17:11:41.219Z,21.96
2022-07-25T17:14:10.521Z,21.80
2022-07-25T17:16:43.104Z,21.50
2022-07-25T17:19:12.639Z,21.52
2022-07-25T17:21:41.802Z,21.59
2022-07-25T17:24:11.182Z,21.39
2022-07-25T17:26:40.633Z,21.33
2022-07-25T17:29:10.653Z,21.20
2022-07-25T17:31:40.133Z,20.98
2022-07-25T17:34:10.865Z,20.85
2022-07-25T17:36:40.491Z,20.86
2022-07-25T17:39:10.339Z,20.77
2022-07-25T17:41:40.059Z,20.88
2022-07-25T17:44:12.099Z,20.76
2022-07-25T17:46:41.810Z,20.80
2022-07-25T17:49:12.959Z,20.71
2022-07-25T17:51:42.421Z,20.78
2022-07-25T17:54:12.165Z,20.92
2022-07-25T17:56:45.471Z,20.97
2022-07-25T17:59:14.758Z,20.83
2022-07-25T18:01:44.050Z,20.88
2022-07-25T18:04:14.907Z,20.72
2022-07-25T18:06:45.153Z,20.76
2022-07-25T18:09:14.338Z,20.86
2022-07-25T18:11:43.511Z,20.98
2022-07-25T18:14:12.770Z,20.88
2022-07-25T18:16:42.100Z,20.90
2022-07-25T18:19:11.414Z,20.93
2022-07-25T18:21:42.002Z,20.85
2022-07-25T18:24:11.816Z,20.75
2022-07-25T18:26:41.419Z,20.66
2022-07-25T18:29:11.397Z,20.49
2022-07-25T18:31:40.729Z,20.45
2022-07-25T18:34:10.457Z,20.39
2022-07-25T18:36:41.484Z,20.35
2022-07-25T18:39:10.966Z,20.36
2022-07-25T18:41:40.261Z,20.36
2022-07-25T18:44:09.781Z,20.53
2022-07-25T18:46:40.493Z,20.53
2022-07-25T18:49:10.647Z,20.57
2022-07-25T18:51:41.773Z,20.68
2022-07-25T18:54:11.301Z,20.61
2022-07-25T18:56:40.627Z,20.62
2022-07-25T18:59:10.260Z,20.56
2022-07-25T19:01:41.429Z,20.50
2022-07-25T19:04:10.999Z,20.44
2022-07-25T19:06:41.965Z,20.38
2022-07-25T19:09:12.022Z,20.23
2022-07-25T19:11:42.371Z,20.05
2022-07-25T19:14:12.290Z,20.23
2022-07-25T19:16:41.983Z,20.29
2022-07-25T19:19:11.773Z,20.04
2022-07-25T19:21:42.354Z,20.07
2022-07-25T19:24:11.945Z,20.17
2022-07-25T19:26:41.508Z,20.04
2022-07-25T19:29:12.271Z,20.04
2022-07-25T19:31:41.713Z,19.94
2022-07-25T19:34:11.541Z,19.94
2022-07-25T19:36:43.917Z,19.90
2022-07-25T19:39:13.815Z,19.97
2022-07-25T19:41:46.841Z,19.83
2022-07-25T19:44:16.488Z,19.69
2022-07-25T19:46:45.759Z,19.81
2022-07-25T19:49:15.051Z,19.84
2022-07-25T19:51:46.254Z,19.82
2022-07-25T19:54:15.505Z,19.76
2022-07-25T19:56:44.744Z,19.92
2022-07-25T19:59:14.188Z,19.76
2022-07-25T20:01:43.553Z,19.69
2022-07-25T20:04:13.051Z,19.61
2022-07-25T20:06:42.553Z,19.49
2022-07-25T20:09:13.200Z,19.44
2022-07-25T20:11:42.792Z,19.38
2022-07-25T20:14:12.343Z,19.45
2022-07-25T20:16:41.768Z,19.34
2022-07-25T20:19:12.429Z,19.32
2022-07-25T20:21:42.592Z,19.39
2022-07-25T20:24:17.979Z,19.39
2022-07-25T20:26:50.430Z,19.42
2022-07-25T20:29:19.766Z,19.29
2022-07-25T20:31:49.462Z,19.35
2022-07-25T20:34:19.526Z,19.36
2022-07-25T20:36:49.018Z,19.33
2022-07-25T20:39:19.753Z,19.37
2022-07-25T20:41:50.076Z,19.36
2022-07-25T20:44:19.627Z,19.21
2022-07-25T20:46:48.860Z,19.28
2022-07-25T20:49:18.145Z,19.30
2022-07-25T20:51:54.181Z,19.27
2022-07-25T20:54:25.531Z,19.24
2022-07-25T20:56:54.897Z,19.25
2022-07-25T20:59:24.083Z,19.23
2022-07-25T21:01:54.330Z,19.05
2022-07-25T21:04:24.229Z,19.20
2022-07-25T21:06:56.577Z,19.08
2022-07-25T21:09:30.961Z,19.06
2022-07-25T21:12:02.892Z,19.02
2022-07-25T21:14:32.081Z,19.06
2022-07-25T21:17:01.513Z,19.01
2022-07-25T21:19:31.002Z,18.99
2022-07-25T21:22:00.409Z,19.07
2022-07-25T21:24:31.125Z,19.12
2022-07-25T21:27:00.436Z,19.03
2022-07-25T21:29:29.607Z,18.96
2022-07-25T21:31:59.031Z,18.93
2022-07-25T21:34:28.341Z,18.99
2022-07-25T21:36:57.554Z,18.89
2022-07-25T21:39:26.889Z,18.84
2022-07-25T21:41:57.509Z,18.78
2022-07-25T21:44:27.266Z,18.64
2022-07-25T21:46:56.601Z,18.61
2022-07-25T21:49:43.583Z,18.62
2022-07-25T21:52:16.045Z,18.72
2022-07-25T21:54:45.506Z,18.69
2022-07-25T21:57:16.300Z,18.71
2022-07-25T21:59:46.558Z,18.64
2022-07-25T22:02:15.787Z,18.57
2022-07-25T22:04:45.361Z,18.48
2022-07-25T22:07:14.728Z,18.38
2022-07-25T22:09:44.238Z,18.34
2022-07-25T22:12:13.808Z,18.26
2022-07-25T22:14:44.778Z,18.34
2022-07-25T22:17:14.438Z,18.26
2022-07-25T22:19:43.726Z,18.21
2022-07-25T22:22:13.231Z,18.07
2022-07-25T22:24:46.479Z,18.06
2022-07-25T22:27:16.627Z,18.08
2022-07-25T22:29:47.692Z,17.93
2022-07-25T22:32:17.223Z,18.01
2022-07-25T22:34:47.009Z,17.98
2022-07-25T22:37:16.510Z,17.96
2022-07-25T22:39:45.832Z,17.91
2022-07-25T22:42:16.068Z,17.81
2022-07-25T22:44:47.113Z,17.88
2022-07-25T22:47:16.476Z,17.88
2022-07-25T22:49:45.710Z,17.88
2022-07-25T22:52:15.222Z,17.81
2022-07-25T22:54:44.764Z,17.82
2022-07-25T22:57:14.044Z,17.88
2022-07-25T22:59:43.451Z,17.83
2022-07-25T23:02:14.081Z,17.70
2022-07-25T23:04:43.520Z,17.79
2022-07-25T23:07:12.857Z,17.53
2022-07-25T23:09:42.377Z,17.66
2022-07-25T23:12:11.934Z,17.59
2022-07-25T23:14:41.258Z,17.58
2022-07-25T23:17:20.405Z,17.66
2022-07-25T23:19:53.978Z,17.64
2022-07-25T23:22:26.229Z,17.74
2022-07-25T23:24:55.756Z,17.78
2022-07-25T23:27:25.889Z,17.82
2022-07-25T23:29:55.461Z,17.74
2022-07-25T23:32:24.898Z,17.60
2022-07-25T23:34:55.698Z,17.52
2022-07-25T23:37:25.057Z,17.52
2022-07-25T23:39:54.591Z,17.57
2022-07-25T23:42:23.862Z,17.51
2022-07-25T23:44:53.117Z,17.37
2022-07-25T23:47:26.797Z,17.46
2022-07-25T23:50:11.687Z,17.47
2022-07-25T23:52:41.492Z,17.26
2022-07-25T23:55:11.578Z,17.31
2022-07-25T23:57:40.917Z,17.29
